Decoded Metar for GOBD ( in ) (IATA:) | Meteo·Mobile Aviation Weather
aviador You're here:

GOBD Decoded Metar

in
Report Time2018-11-21 08:00:00
UTC Time2018-11-21 08:08:15
Flight Rules vfr VFR
Wind010° at 17 kt
W.Rank010° ranks 3
Current wind is above 010° avg. (14.5)
Visibility9999 m
Phenomena:N/A
Clouds:N/A
Expected CloudBase > 2,000 ft AGL from Temp-Dew spread
CeilingNone
Temp20°C
Dew Point15°C (73% RH)
AAT15.5°C
QNH1014 hPa
Raw Report
METAR GOBD 210800Z 01017KT CAVOK 20/15 Q1014 NOSIG=####018000078####
SAIN90 VABB 210800

Extra information for GOBD:More info

Social comments